Main page
Satellite images 15-day forecastsClimateMarine weather Cyclones Lightning AirportsFAQ Newsletter About
Weather : Europe Africa North America South America Asia Australia-Oceania Others
Languages Contact

Pontianak, Indonesia

latitude: 00-09S, longitude: 109-24E, elevation: 3 m


METAR: WIOO 230200Z 14008KT 9999 FEW013 29/24 Q1012 NOSIG
short-TAF: out of date (61308 hours)
long-TAF: out of date (2853 hours)

Time: 10:40 (03:40 UTC)

Current weather observation

The report was made 1 hour and 40 minutes ago, at 02:00 UTC  
Wind 08 kt from the Southeast
Temperature 29°C
Humidity 74%
Pressure 1012 hPa
Visibility 10 km or more
Few clouds at a height of 1300 ft

Change units
The information on this site is subject to a disclaimer
Weather : Europe Africa North America South America Asia Australia-Oceania Others
Satellite images 15-day forecastsClimateMarine weather Cyclones Lightning AirportsFAQ Languages Contact Newsletter About